Terminal Aerodrome Forecast
Issued by NWS

Home | Current Version | Previous Version | Text Only | Print | Product List | Glossary On
Versions: 1 2 3 4 5 6 7 8 9 10 11 12 13 14 15 16 17 18 19 20 21 22 23 24 25 26 27 28 29 30 31 32 33 34 35 36 37
000
FTUS41 KRNK 222332
TAFBCB
TAF
KBCB 222332Z 2300/2324 29005KT P6SM SCT060 SCT250
     FM230200 00000KT P6SM SCT060 SCT250
      TEMPO 2309/2312 4SM BR
     FM231400 VRB04KT P6SM SCT050 SCT250
     FM231600 13006KT P6SM SCT060 SCT250
      TEMPO 2317/2321 BKN060=

USA.gov is the U.S. government's official web portal to all federal, state and local government web resources and services.